Time;durP1;ratioP1;P1;durP2;ratioP2;P2;SDS_P1;SDS_P2;PMS_P1;PMS_P2;Temp;Humidity;BMP_temperature;BMP_pressure;BME280_temperature;BME280_humidity;BME280_pressure;Samples;Min_cycle;Max_cycle;Signal;HPM_P1;HPM_P2
2022/01/20 00:03:38;;;;;;;12.30;9.10;;;;;;99738.45;;;;106676;1296;63424;-41
2022/01/20 00:27:57;;;;;;;11.20;8.20;;;;;;99702.05;;;;106620;1297;63479;-42
2022/01/20 00:33:01;;;;;;;11.20;8.30;;;;;;99694.44;;;;106463;1300;63993;-47
2022/01/20 00:37:14;;;;;;;10.70;7.70;;;;;;99689.58;;;;106544;1299;68050;-47
2022/01/20 00:38:16;;;;;;;10.50;7.90;;;;;;99681.21;;;;106533;1298;63604;-40
2022/01/20 00:40:46;;;;;;;12.10;7.80;;;;;;99674.02;;;;106608;1297;63378;-41
2022/01/20 00:43:14;;;;;;;10.40;7.30;;;;;;99661.05;;;;106603;1296;63480;-42
2022/01/20 00:45:41;;;;;;;10.50;8.20;;;;;;99652.70;;;;106613;1297;63350;-42
2022/01/20 00:48:09;;;;;;;11.00;8.20;;;;;;99661.85;;;;106439;1298;67008;-43
2022/01/20 00:50:38;;;;;;;12.60;8.20;;;;;;99650.91;;;;106547;1297;63501;-40
2022/01/20 00:53:05;;;;;;;10.80;7.40;;;;;;99644.82;;;;106599;1297;63470;-41
2022/01/20 00:55:32;;;;;;;12.10;8.30;;;;;;99639.42;;;;106613;1297;63411;-40
2022/01/20 00:58:03;;;;;;;10.20;7.60;;;;;;99637.72;;;;106647;1297;63476;-41
2022/01/20 01:00:30;;;;;;;11.10;7.80;;;;;;99633.98;;;;106614;1296;65448;-41
2022/01/20 01:02:57;;;;;;;11.00;8.10;;;;;;99637.08;;;;106415;1297;242784;-47
2022/01/20 01:05:26;;;;;;;10.60;7.30;;;;;;99625.58;;;;106568;1296;63406;-45
2022/01/20 01:07:56;;;;;;;10.60;8.20;;;;;;99622.94;;;;106460;1297;63440;-43
2022/01/20 01:10:28;;;;;;;10.20;7.70;;;;;;99617.70;;;;106577;1296;63354;-40
2022/01/20 01:13:10;;;;;;;12.00;7.40;;;;;;99613.46;;;;106482;1297;67015;-40
2022/01/20 01:15:39;;;;;;;10.20;7.20;;;;;;99602.58;;;;106626;1296;63450;-43
2022/01/20 01:23:36;;;;;;;10.40;7.50;;;;;;99603.02;;;;106638;1297;63397;-41
2022/01/20 01:26:08;;;;;;;9.40;7.30;;;;;;99602.72;;;;106619;1296;68568;-42
2022/01/20 01:28:36;;;;;;;11.30;7.80;;;;;;99594.23;;;;106627;1297;63413;-41
2022/01/20 01:33:49;;;;;;;9.90;7.20;;;;;;99585.87;;;;106609;1297;63379;-42
2022/01/20 01:36:19;;;;;;;8.70;6.90;;;;;;99576.29;;;;106657;1297;63439;-43
2022/01/20 01:38:47;;;;;;;10.10;7.10;;;;;;99574.52;;;;106616;1296;67342;-40
2022/01/20 01:41:26;;;;;;;10.10;7.00;;;;;;99562.50;;;;106480;1297;63412;-40
2022/01/20 01:44:01;;;;;;;10.50;7.60;;;;;;99559.85;;;;106449;1297;63467;-41
2022/01/20 01:46:28;;;;;;;10.90;7.80;;;;;;99555.08;;;;106628;1296;63437;-41
2022/01/20 01:48:58;;;;;;;11.20;7.80;;;;;;99554.18;;;;106651;1297;63318;-40
2022/01/20 01:51:26;;;;;;;9.60;7.00;;;;;;99547.96;;;;106656;1296;66801;-39
2022/01/20 01:53:53;;;;;;;10.20;7.20;;;;;;99546.86;;;;106627;1297;63373;-42
2022/01/20 01:56:20;;;;;;;11.10;7.40;;;;;;99541.52;;;;106616;1297;63349;-33
2022/01/20 01:58:50;;;;;;;10.80;7.40;;;;;;99532.60;;;;106629;1297;63418;-32
2022/01/20 02:01:17;;;;;;;11.20;7.80;;;;;;99532.66;;;;106631;1296;63795;-31
2022/01/20 02:03:47;;;;;;;11.90;7.20;;;;;;99534.05;;;;106634;1297;66727;-32
2022/01/20 02:06:40;;;;;;;9.20;7.10;;;;;;99528.42;;;;106449;1299;63630;-40
2022/01/20 02:20:23;;;;;;;8.90;6.80;;;;;;99501.09;;;;106627;1296;63489;-33
2022/01/20 02:22:51;;;;;;;10.30;7.10;;;;;;99500.16;;;;106644;1297;63343;-34
2022/01/20 02:25:23;;;;;;;9.70;6.80;;;;;;99492.10;;;;106627;1297;63528;-33
2022/01/20 02:27:52;;;;;;;9.90;7.10;;;;;;99485.25;;;;106644;1297;64069;-33
2022/01/20 02:30:22;;;;;;;9.80;7.20;;;;;;99480.08;;;;106615;1296;67401;-32
2022/01/20 02:33:00;;;;;;;11.00;7.30;;;;;;99474.73;;;;106604;1296;63423;-33
2022/01/20 02:35:32;;;;;;;11.20;6.50;;;;;;99470.17;;;;106632;1296;63405;-40
2022/01/20 02:38:07;;;;;;;9.00;6.60;;;;;;99464.05;;;;106614;1297;63492;-40
2022/01/20 02:45:58;;;;;;;10.20;7.20;;;;;;99456.76;;;;106624;1296;63415;-33
2022/01/20 02:48:26;;;;;;;9.10;6.40;;;;;;99450.11;;;;106448;1297;63366;-34
2022/01/20 02:50:53;;;;;;;11.30;7.00;;;;;;99449.13;;;;106623;1296;63563;-31
2022/01/20 02:53:23;;;;;;;9.90;6.70;;;;;;99440.55;;;;106643;1297;63444;-39
2022/01/20 02:55:52;;;;;;;9.40;7.00;;;;;;99435.96;;;;106576;1297;67328;-32
2022/01/20 02:58:19;;;;;;;9.80;6.30;;;;;;99428.38;;;;106611;1297;63474;-32
2022/01/20 03:00:48;;;;;;;9.70;7.50;;;;;;99419.80;;;;106555;1297;63332;-32
2022/01/20 03:03:16;;;;;;;9.80;6.90;;;;;;99412.98;;;;106437;1299;63376;-33
2022/01/20 03:05:44;;;;;;;10.10;6.80;;;;;;99411.31;;;;106479;1300;63358;-41
2022/01/20 03:08:11;;;;;;;8.90;5.90;;;;;;99403.84;;;;106563;1297;65429;-34
2022/01/20 03:10:38;;;;;;;9.80;6.60;;;;;;99396.85;;;;106631;1297;63444;-49
2022/01/20 03:13:09;;;;;;;8.70;6.30;;;;;;99401.16;;;;106601;1297;63432;-31
2022/01/20 03:15:36;;;;;;;9.20;6.80;;;;;;99397.55;;;;106615;1297;63439;-31
2022/01/20 03:18:04;;;;;;;9.20;6.70;;;;;;99393.73;;;;106574;1296;63451;-39
2022/01/20 03:20:33;;;;;;;8.20;6.40;;;;;;99387.55;;;;106627;1296;67523;-41
2022/01/20 03:23:01;;;;;;;9.30;6.40;;;;;;99390.31;;;;106621;1296;63519;-33
2022/01/20 03:25:28;;;;;;;8.70;6.40;;;;;;99383.18;;;;106576;1296;63433;-40
2022/01/20 03:27:56;;;;;;;9.70;6.50;;;;;;99370.23;;;;106585;1297;63412;-32
2022/01/20 03:30:26;;;;;;;8.50;6.60;;;;;;99380.35;;;;106557;1297;63414;-34
2022/01/20 03:32:56;;;;;;;8.70;6.30;;;;;;99381.81;;;;106481;1297;66886;-32
2022/01/20 03:35:24;;;;;;;10.50;6.80;;;;;;99373.23;;;;106559;1297;63398;-32
2022/01/20 03:37:51;;;;;;;8.40;6.30;;;;;;99367.19;;;;106621;1297;63395;-33
2022/01/20 03:40:20;;;;;;;10.00;6.40;;;;;;99375.27;;;;106472;1296;63572;-40
2022/01/20 03:42:48;;;;;;;9.00;6.20;;;;;;99372.48;;;;106589;1297;63397;-39
2022/01/20 03:45:15;;;;;;;9.50;6.30;;;;;;99374.79;;;;106565;1297;66111;-42
2022/01/20 03:47:45;;;;;;;9.20;6.20;;;;;;99365.53;;;;106618;1296;63581;-42
2022/01/20 03:52:58;;;;;;;7.80;5.50;;;;;;99370.45;;;;106601;1297;63480;-42
2022/01/20 03:55:25;;;;;;;8.80;5.60;;;;;;99368.16;;;;106576;1297;63338;-38
2022/01/20 03:57:52;;;;;;;8.90;6.00;;;;;;99356.13;;;;106623;1297;67137;-40
2022/01/20 04:00:19;;;;;;;9.30;6.00;;;;;;99355.81;;;;106622;1296;63383;-39
2022/01/20 04:02:46;;;;;;;8.40;5.50;;;;;;99362.13;;;;106544;1297;63356;-39
2022/01/20 04:05:13;;;;;;;9.30;6.00;;;;;;99351.17;;;;106568;1297;63470;-40
2022/01/20 04:07:40;;;;;;;8.00;5.70;;;;;;99346.52;;;;106622;1297;63301;-40
2022/01/20 04:10:10;;;;;;;7.90;5.50;;;;;;99348.83;;;;106636;1297;67279;-39
2022/01/20 04:12:41;;;;;;;7.70;5.60;;;;;;99344.31;;;;106613;1296;63421;-39
2022/01/20 04:15:09;;;;;;;8.60;6.40;;;;;;99345.98;;;;106567;1297;63459;-48
2022/01/20 04:17:40;;;;;;;7.80;5.60;;;;;;99353.08;;;;106552;1297;63327;-42
2022/01/20 04:20:10;;;;;;;8.00;5.80;;;;;;99345.95;;;;106648;1297;63322;-40
2022/01/20 04:22:37;;;;;;;8.10;6.10;;;;;;99341.67;;;;106561;1297;65617;-39
2022/01/20 04:25:05;;;;;;;6.70;5.10;;;;;;99344.94;;;;106603;1297;63421;-42
2022/01/20 04:27:32;;;;;;;8.10;5.60;;;;;;99341.40;;;;106609;1296;63459;-42
2022/01/20 04:29:59;;;;;;;8.70;5.30;;;;;;99343.58;;;;106607;1297;63474;-42
2022/01/20 04:32:26;;;;;;;8.10;4.90;;;;;;99335.17;;;;106626;1296;63320;-40
2022/01/20 04:34:54;;;;;;;7.60;5.10;;;;;;99332.75;;;;106618;1296;65615;-42
2022/01/20 04:37:22;;;;;;;7.30;5.10;;;;;;99333.16;;;;106608;1297;63480;-43
2022/01/20 04:39:51;;;;;;;8.00;4.90;;;;;;99337.48;;;;106468;1297;63447;-40
2022/01/20 04:42:20;;;;;;;7.30;5.10;;;;;;99337.44;;;;106603;1297;63491;-31
2022/01/20 04:44:56;;;;;;;6.90;5.20;;;;;;99332.18;;;;106616;1297;63343;-42
2022/01/20 04:47:33;;;;;;;8.10;4.70;;;;;;99330.13;;;;106622;1296;67354;-31
2022/01/20 04:58:24;;;;;;;6.40;4.50;;;;;;99321.87;;;;106617;1297;63414;-34
2022/01/20 05:00:55;;;;;;;6.60;4.70;;;;;;99316.45;;;;106567;1296;67093;-36
2022/01/20 05:03:25;;;;;;;7.70;4.70;;;;;;99312.25;;;;106436;1296;63402;-34
2022/01/20 05:05:55;;;;;;;7.10;4.60;;;;;;99314.09;;;;106623;1296;63430;-33
2022/01/20 05:08:24;;;;;;;6.90;4.70;;;;;;99305.64;;;;106610;1297;63294;-33
2022/01/20 05:10:52;;;;;;;6.40;4.60;;;;;;99299.48;;;;106646;1296;63422;-31
2022/01/20 05:13:34;;;;;;;7.10;4.70;;;;;;99305.59;;;;106613;1296;65592;-31
2022/01/20 05:16:01;;;;;;;7.10;4.70;;;;;;99298.70;;;;106587;1296;63376;-33
2022/01/20 05:18:29;;;;;;;6.70;4.20;;;;;;99296.29;;;;106617;1297;63403;-32
2022/01/20 05:20:57;;;;;;;6.60;4.00;;;;;;99301.31;;;;106548;1296;63318;-32
2022/01/20 05:23:24;;;;;;;6.70;4.60;;;;;;99296.60;;;;106586;1296;63348;-32
2022/01/20 05:25:51;;;;;;;6.50;4.30;;;;;;99294.05;;;;106550;1296;66183;-32
2022/01/20 05:28:19;;;;;;;6.50;4.00;;;;;;99293.18;;;;106629;1296;63529;-32
2022/01/20 05:30:46;;;;;;;6.80;4.30;;;;;;99293.64;;;;106615;1297;63470;-33
2022/01/20 05:33:13;;;;;;;6.40;4.40;;;;;;99300.92;;;;106607;1296;63615;-32
2022/01/20 05:35:40;;;;;;;6.80;4.20;;;;;;99290.52;;;;106620;1296;63513;-33
2022/01/20 05:38:12;;;;;;;6.20;4.30;;;;;;99295.45;;;;106627;1296;66866;-33
2022/01/20 05:40:42;;;;;;;6.50;4.70;;;;;;99300.43;;;;106611;1296;63361;-32
2022/01/20 05:43:09;;;;;;;5.80;4.00;;;;;;99302.67;;;;106613;1296;63412;-32
2022/01/20 05:45:36;;;;;;;6.50;4.00;;;;;;99311.59;;;;106608;1296;63814;-32
2022/01/20 05:48:15;;;;;;;6.00;4.10;;;;;;99317.49;;;;106639;1297;63374;-33
2022/01/20 05:50:44;;;;;;;6.30;4.00;;;;;;99309.11;;;;106489;1297;68262;-33
2022/01/20 05:53:12;;;;;;;5.80;3.60;;;;;;99309.60;;;;106480;1295;63632;-33
2022/01/20 05:55:39;;;;;;;5.70;3.90;;;;;;99313.00;;;;106624;1296;63394;-32
2022/01/20 05:58:07;;;;;;;5.50;3.50;;;;;;99315.54;;;;106454;1296;63434;-32
2022/01/20 06:00:36;;;;;;;5.40;3.50;;;;;;99321.34;;;;106563;1296;63452;-32
2022/01/20 06:05:50;;;;;;;5.00;3.10;;;;;;99327.06;;;;106606;1297;63455;-40
2022/01/20 06:08:17;;;;;;;5.20;2.90;;;;;;99329.63;;;;106613;1296;63430;-41
2022/01/20 06:10:45;;;;;;;5.30;2.90;;;;;;99328.53;;;;106623;1296;63352;-41
2022/01/20 06:13:12;;;;;;;5.80;3.50;;;;;;99330.36;;;;106609;1297;63337;-40
2022/01/20 06:15:42;;;;;;;5.30;3.00;;;;;;99329.23;;;;106623;1297;67910;-43
2022/01/20 06:18:09;;;;;;;6.40;3.20;;;;;;99329.50;;;;106610;1297;63763;-42
2022/01/20 06:20:38;;;;;;;5.60;3.10;;;;;;99337.30;;;;106569;1296;63498;-42
2022/01/20 06:23:07;;;;;;;4.30;2.60;;;;;;99333.30;;;;106458;1296;63847;-42
2022/01/20 06:25:35;;;;;;;4.70;2.80;;;;;;99328.53;;;;106635;1297;63310;-40
2022/01/20 06:28:04;;;;;;;5.60;3.00;;;;;;99326.92;;;;106621;1296;65876;-40
2022/01/20 06:30:32;;;;;;;4.50;2.50;;;;;;99320.84;;;;106609;1296;63513;-40
2022/01/20 06:33:00;;;;;;;4.10;2.10;;;;;;99320.00;;;;106552;1297;63416;-40
2022/01/20 06:35:27;;;;;;;4.70;2.80;;;;;;99316.35;;;;106610;1296;63400;-40
2022/01/20 06:37:58;;;;;;;4.80;2.50;;;;;;99312.04;;;;106586;1297;63378;-41
2022/01/20 06:40:25;;;;;;;5.10;2.60;;;;;;99305.63;;;;106552;1297;66980;-42
2022/01/20 06:42:56;;;;;;;6.10;2.60;;;;;;99298.17;;;;106609;1296;63509;-43
2022/01/20 06:45:26;;;;;;;5.20;2.50;;;;;;99293.13;;;;106630;1296;63395;-42
2022/01/20 06:47:53;;;;;;;4.80;2.50;;;;;;99298.11;;;;106547;1297;63463;-42
2022/01/20 06:50:22;;;;;;;4.00;2.20;;;;;;99299.39;;;;106577;1297;63335;-41
2022/01/20 06:52:49;;;;;;;5.30;2.50;;;;;;99300.89;;;;106637;1296;67225;-40
2022/01/20 06:55:16;;;;;;;4.70;2.40;;;;;;99300.30;;;;106609;1296;63362;-42
2022/01/20 06:57:44;;;;;;;5.50;2.60;;;;;;99299.20;;;;106648;1296;63475;-42
2022/01/20 07:00:22;;;;;;;4.90;2.20;;;;;;99300.61;;;;106458;1299;63483;-40
2022/01/20 07:02:50;;;;;;;4.60;2.10;;;;;;99301.59;;;;106631;1297;63404;-40
2022/01/20 07:05:20;;;;;;;3.90;2.00;;;;;;99302.52;;;;106638;1296;65263;-39
2022/01/20 07:07:48;;;;;;;4.60;2.00;;;;;;99299.63;;;;106461;1296;63420;-40
2022/01/20 07:10:17;;;;;;;5.90;2.30;;;;;;99303.58;;;;106636;1297;63930;-40
2022/01/20 07:12:48;;;;;;;4.60;2.30;;;;;;99299.14;;;;106469;1297;63530;-40
2022/01/20 07:15:17;;;;;;;4.60;2.00;;;;;;99302.18;;;;106657;1297;63386;-43
2022/01/20 07:17:44;;;;;;;4.50;1.90;;;;;;99306.75;;;;106628;1296;65308;-44
2022/01/20 07:20:13;;;;;;;3.80;1.80;;;;;;99307.39;;;;106618;1296;63530;-41
2022/01/20 07:22:41;;;;;;;4.40;1.80;;;;;;99306.23;;;;106520;1297;63445;-41
2022/01/20 07:25:11;;;;;;;4.40;2.00;;;;;;99307.69;;;;106604;1296;63407;-43
2022/01/20 07:27:41;;;;;;;5.10;2.20;;;;;;99307.56;;;;106640;1296;63360;-43
2022/01/20 07:30:12;;;;;;;5.60;2.10;;;;;;99300.67;;;;106473;1297;66768;-39
2022/01/20 07:32:40;;;;;;;5.00;2.10;;;;;;99297.16;;;;106618;1296;63998;-43
2022/01/20 07:35:10;;;;;;;4.30;2.00;;;;;;99289.90;;;;106634;1296;63369;-40
2022/01/20 07:37:41;;;;;;;6.00;2.40;;;;;;99280.47;;;;106565;1296;63470;-42
2022/01/20 07:40:09;;;;;;;4.30;1.70;;;;;;99288.42;;;;106568;1297;63400;-41
2022/01/20 07:42:36;;;;;;;4.70;1.90;;;;;;99289.69;;;;106629;1296;66802;-40
2022/01/20 07:45:04;;;;;;;3.40;1.70;;;;;;99291.51;;;;106629;1297;63453;-40
2022/01/20 07:47:32;;;;;;;6.50;2.20;;;;;;99296.45;;;;106441;1296;63525;-40
2022/01/20 07:50:03;;;;;;;4.70;2.00;;;;;;99294.83;;;;106602;1296;63429;-43
2022/01/20 07:52:30;;;;;;;4.50;1.90;;;;;;99286.49;;;;106503;1297;63382;-42
2022/01/20 07:55:00;;;;;;;4.40;1.80;;;;;;99290.79;;;;106606;1297;66078;-42
2022/01/20 07:57:27;;;;;;;5.00;1.80;;;;;;99278.03;;;;106602;1296;63364;-42
2022/01/20 07:59:58;;;;;;;4.40;2.30;;;;;;99270.64;;;;106557;1297;63360;-43
2022/01/20 08:02:25;;;;;;;4.80;1.90;;;;;;99263.38;;;;106608;1295;63520;-42
2022/01/20 08:04:55;;;;;;;5.00;2.10;;;;;;99269.99;;;;106577;1296;64177;-42
2022/01/20 08:07:23;;;;;;;4.10;2.00;;;;;;99275.36;;;;106628;1297;66831;-42
2022/01/20 08:09:56;;;;;;;4.20;1.90;;;;;;99274.05;;;;106595;1296;63546;-43
2022/01/20 08:12:24;;;;;;;;;;;;;;99278.86;;;;106643;1297;63377;-42
2022/01/20 08:14:59;;;;;;;4.30;1.80;;;;;;99277.49;;;;106602;1297;63356;-40
2022/01/20 08:17:27;;;;;;;5.70;1.90;;;;;;99283.02;;;;106508;1297;63426;-41
2022/01/20 08:19:55;;;;;;;5.10;2.20;;;;;;99282.30;;;;106553;1296;65252;-43
2022/01/20 08:22:22;;;;;;;4.80;1.90;;;;;;99274.69;;;;106537;1296;63520;-41
2022/01/20 08:24:52;;;;;;;5.30;2.00;;;;;;99262.20;;;;106617;1296;63391;-42
2022/01/20 08:27:20;;;;;;;5.50;2.00;;;;;;99251.77;;;;106613;1296;63359;-41
2022/01/20 08:29:48;;;;;;;4.80;1.90;;;;;;99249.14;;;;106522;1297;63394;-43
2022/01/20 08:32:15;;;;;;;5.70;1.70;;;;;;99248.23;;;;106614;1296;67371;-42
2022/01/20 08:34:43;;;;;;;5.20;1.80;;;;;;99246.48;;;;106584;1296;63534;-41
2022/01/20 08:37:10;;;;;;;4.50;1.70;;;;;;99243.20;;;;106609;1296;63439;-41
2022/01/20 08:39:46;;;;;;;6.40;2.00;;;;;;99239.00;;;;106606;1297;63481;-41
2022/01/20 08:42:14;;;;;;;4.60;1.80;;;;;;99228.14;;;;106509;1297;63362;-43
2022/01/20 08:44:41;;;;;;;5.20;2.10;;;;;;99224.34;;;;106431;1297;65372;-43
2022/01/20 08:47:17;;;;;;;5.50;2.10;;;;;;99217.06;;;;106600;1297;63534;-42
2022/01/20 08:49:50;;;;;;;6.00;1.90;;;;;;99216.76;;;;106524;1297;63462;-41
2022/01/20 08:52:18;;;;;;;;;;;;;;99232.72;;;;106614;1297;63401;-40
2022/01/20 08:54:47;;;;;;;6.20;2.10;;;;;;99246.98;;;;106573;1296;63390;-43
2022/01/20 08:57:15;;;;;;;5.60;1.90;;;;;;99247.23;;;;106607;1297;65843;-44
2022/01/20 08:59:42;;;;;;;7.10;2.40;;;;;;99244.91;;;;106612;1296;63380;-43
2022/01/20 09:02:10;;;;;;;5.90;1.80;;;;;;99237.86;;;;106603;1297;63345;-43
2022/01/20 09:04:38;;;;;;;6.40;2.10;;;;;;99239.67;;;;106252;1297;408547;-42
2022/01/20 09:07:06;;;;;;;6.00;1.80;;;;;;99247.52;;;;106611;1297;63417;-42
2022/01/20 09:09:39;;;;;;;5.20;1.80;;;;;;99237.89;;;;106623;1296;67036;-41
2022/01/20 09:17:31;;;;;;;5.20;2.00;;;;;;99240.46;;;;106462;1296;63526;-38
2022/01/20 09:19:59;;;;;;;6.70;2.10;;;;;;99241.48;;;;106605;1296;63425;-33
2022/01/20 09:22:29;;;;;;;5.40;1.80;;;;;;99241.34;;;;106543;1297;66611;-34
2022/01/20 09:24:56;;;;;;;5.70;1.90;;;;;;99233.15;;;;106596;1297;63472;-34
2022/01/20 09:27:23;;;;;;;4.20;1.60;;;;;;99225.44;;;;106603;1297;63757;-34
2022/01/20 09:29:50;;;;;;;5.70;2.20;;;;;;99219.92;;;;106596;1296;63504;-42
2022/01/20 09:32:19;;;;;;;5.20;1.80;;;;;;99230.23;;;;106558;1296;63408;-42
2022/01/20 09:34:48;;;;;;;5.10;1.70;;;;;;99239.34;;;;106561;1296;66497;-34
2022/01/20 09:37:16;;;;;;;6.60;2.00;;;;;;99233.87;;;;106465;1295;63493;-43
2022/01/20 09:39:44;;;;;;;5.10;1.60;;;;;;99232.91;;;;106593;1296;63369;-42
2022/01/20 09:42:12;;;;;;;5.50;1.90;;;;;;99219.38;;;;106600;1297;63607;-42
2022/01/20 09:44:47;;;;;;;6.50;1.90;;;;;;99223.70;;;;106481;1297;63482;-42
2022/01/20 09:47:17;;;;;;;5.20;1.80;;;;;;99214.30;;;;106652;1296;67021;-43
2022/01/20 09:49:45;;;;;;;5.90;1.90;;;;;;99207.48;;;;106628;1296;63929;-42
2022/01/20 09:52:13;;;;;;;8.00;2.60;;;;;;99214.20;;;;106683;1296;63346;-39
2022/01/20 09:54:40;;;;;;;5.30;1.70;;;;;;99219.73;;;;106595;1297;63611;-34
2022/01/20 09:57:07;;;;;;;4.60;2.20;;;;;;99218.87;;;;106621;1296;63457;-44
2022/01/20 09:59:35;;;;;;;5.10;1.50;;;;;;99215.63;;;;106630;1296;66816;-41
2022/01/20 10:02:02;;;;;;;5.40;1.60;;;;;;99208.91;;;;106610;1297;63443;-41
2022/01/20 10:04:34;;;;;;;4.60;1.50;;;;;;99208.67;;;;106622;1296;63478;-40
2022/01/20 10:07:06;;;;;;;4.60;1.60;;;;;;99202.93;;;;106594;1296;63520;-41
2022/01/20 10:09:38;;;;;;;4.30;1.70;;;;;;99210.20;;;;106554;1296;63381;-40
2022/01/20 10:12:09;;;;;;;4.10;1.50;;;;;;99208.16;;;;106528;1296;68129;-36
2022/01/20 10:14:47;;;;;;;5.50;1.50;;;;;;99214.64;;;;106587;1297;63448;-41
2022/01/20 10:17:29;;;;;;;5.00;1.60;;;;;;99211.41;;;;106599;1297;63374;-36
2022/01/20 10:20:04;;;;;;;3.90;1.30;;;;;;99208.73;;;;106455;1297;63451;-41
2022/01/20 10:22:35;;;;;;;5.30;1.70;;;;;;99218.77;;;;106627;1296;63504;-40
2022/01/20 10:25:14;;;;;;;6.10;1.70;;;;;;99217.02;;;;106606;1296;69383;-37
2022/01/20 10:27:50;;;;;;;4.30;1.30;;;;;;99210.17;;;;106455;1297;63379;-41
2022/01/20 10:30:18;;;;;;;4.30;1.50;;;;;;99209.05;;;;106670;1296;63477;-33
2022/01/20 10:32:51;;;;;;;5.20;1.60;;;;;;99209.66;;;;106510;1296;63382;-41
2022/01/20 10:35:27;;;;;;;5.20;1.70;;;;;;99198.49;;;;106615;1297;63379;-35
2022/01/20 10:38:00;;;;;;;5.10;1.50;;;;;;99200.53;;;;106560;1295;67368;-32
2022/01/20 10:40:28;;;;;;;4.40;1.40;;;;;;99188.08;;;;106603;1297;63413;-40
2022/01/20 10:42:55;;;;;;;3.80;1.30;;;;;;99185.52;;;;106609;1297;63493;-38
2022/01/20 10:45:28;;;;;;;4.30;1.50;;;;;;99193.33;;;;106422;1296;63511;-39
2022/01/20 10:47:59;;;;;;;4.70;1.70;;;;;;99173.75;;;;106698;1296;63297;-43
2022/01/20 10:50:31;;;;;;;6.30;1.40;;;;;;99173.27;;;;106674;1295;65515;-41
2022/01/20 10:52:58;;;;;;;5.50;1.60;;;;;;99159.22;;;;106623;1296;63415;-41
2022/01/20 10:55:34;;;;;;;3.80;1.40;;;;;;99170.95;;;;106614;1296;63398;-43
2022/01/20 10:58:23;;;;;;;4.20;1.40;;;;;;99173.65;;;;106656;1296;63484;-43
2022/01/20 11:00:54;;;;;;;4.00;1.30;;;;;;99176.46;;;;106560;1297;63494;-35
2022/01/20 11:03:26;;;;;;;5.00;1.60;;;;;;99168.35;;;;106636;1296;66709;-38
2022/01/20 11:05:56;;;;;;;3.30;1.20;;;;;;99162.38;;;;106600;1297;63458;-41
2022/01/20 11:08:23;;;;;;;5.30;1.40;;;;;;99165.39;;;;106434;1299;63520;-42
2022/01/20 11:10:52;;;;;;;4.80;1.40;;;;;;99165.43;;;;106627;1297;63771;-38
2022/01/20 11:13:20;;;;;;;5.60;1.40;;;;;;99178.47;;;;106519;1299;63348;-40
2022/01/20 11:15:47;;;;;;;5.10;1.40;;;;;;99170.60;;;;106547;1297;65956;-40
2022/01/20 11:18:14;;;;;;;5.10;1.30;;;;;;99174.99;;;;106427;1297;63436;-39
2022/01/20 11:20:54;;;;;;;3.70;1.30;;;;;;99180.96;;;;106561;1297;63360;-34
2022/01/20 11:23:21;;;;;;;4.50;1.50;;;;;;99190.83;;;;106532;1297;63499;-41
2022/01/20 11:25:48;;;;;;;3.90;1.40;;;;;;99193.36;;;;106505;1299;63345;-32
2022/01/20 11:28:16;;;;;;;4.60;1.30;;;;;;99193.37;;;;106550;1297;67241;-42
2022/01/20 11:31:05;;;;;;;6.10;1.40;;;;;;99187.79;;;;106603;1296;63342;-41
2022/01/20 11:33:42;;;;;;;4.70;1.60;;;;;;99195.16;;;;106615;1297;63512;-43
2022/01/20 11:36:27;;;;;;;4.20;1.50;;;;;;99192.61;;;;106525;1297;63808;-39
2022/01/20 11:39:05;;;;;;;4.50;1.50;;;;;;99207.97;;;;106624;1296;63450;-38
2022/01/20 11:41:43;;;;;;;4.00;1.30;;;;;;99211.80;;;;106475;1297;66976;-41
2022/01/20 11:44:15;;;;;;;4.30;1.40;;;;;;99204.96;;;;106547;1299;63302;-41
2022/01/20 11:46:45;;;;;;;4.60;1.20;;;;;;99219.75;;;;106463;1299;63371;-42
2022/01/20 11:49:15;;;;;;;4.50;1.40;;;;;;99218.04;;;;106537;1297;63313;-43
2022/01/20 11:51:48;;;;;;;4.00;1.40;;;;;;99226.13;;;;106470;1299;63476;-41
2022/01/20 11:54:28;;;;;;;4.30;1.20;;;;;;99228.28;;;;106472;1299;68101;-41
2022/01/20 11:57:21;;;;;;;3.10;1.00;;;;;;99237.80;;;;106443;1299;63380;-41
2022/01/20 11:59:54;;;;;;;4.60;1.10;;;;;;99236.95;;;;106433;1299;63506;-41
2022/01/20 12:02:32;;;;;;;4.70;1.00;;;;;;99237.70;;;;106392;1299;63274;-43
2022/01/20 12:05:27;;;;;;;3.30;1.10;;;;;;99238.27;;;;106546;1298;63356;-42
2022/01/20 12:08:12;;;;;;;4.10;1.40;;;;;;99233.70;;;;106483;1296;66842;-41
2022/01/20 12:10:43;;;;;;;4.40;1.20;;;;;;99227.27;;;;106463;1297;63472;-42
2022/01/20 12:13:16;;;;;;;3.60;1.20;;;;;;99225.36;;;;106513;1297;63416;-41
2022/01/20 12:15:55;;;;;;;4.10;1.40;;;;;;99230.34;;;;106590;1296;63520;-41
2022/01/20 12:18:22;;;;;;;5.30;1.10;;;;;;99235.99;;;;106439;1299;63428;-36
2022/01/20 12:20:50;;;;;;;4.10;1.20;;;;;;99232.11;;;;106476;1297;65386;-42
2022/01/20 12:23:20;;;;;;;3.60;1.10;;;;;;99239.30;;;;106555;1297;63355;-41
2022/01/20 12:25:47;;;;;;;4.20;1.00;;;;;;99236.95;;;;106478;1297;63427;-34
2022/01/20 12:28:17;;;;;;;3.50;1.10;;;;;;99230.65;;;;106587;1296;63420;-42
2022/01/20 12:30:48;;;;;;;4.40;1.10;;;;;;99238.25;;;;106494;1298;63507;-35
2022/01/20 12:33:18;;;;;;;4.50;1.40;;;;;;99229.21;;;;106594;1297;65457;-41
2022/01/20 12:35:53;;;;;;;4.10;1.30;;;;;;99237.75;;;;106597;1297;63490;-33
2022/01/20 12:38:29;;;;;;;3.80;1.20;;;;;;99234.61;;;;106705;1296;63432;-34
2022/01/20 12:41:06;;;;;;;4.50;1.30;;;;;;99234.80;;;;106453;1295;63594;-41
2022/01/20 12:43:40;;;;;;;4.20;1.30;;;;;;99232.13;;;;106526;1297;63401;-39
2022/01/20 12:46:28;;;;;;;3.20;0.90;;;;;;99233.41;;;;106466;1297;66473;-41
2022/01/20 12:49:09;;;;;;;4.30;1.10;;;;;;99229.08;;;;106537;1295;63519;-41
2022/01/20 12:51:53;;;;;;;4.00;1.00;;;;;;99229.59;;;;106605;1296;63337;-41
2022/01/20 12:54:33;;;;;;;3.00;1.10;;;;;;99230.07;;;;106573;1297;63337;-40
2022/01/20 12:57:06;;;;;;;3.50;1.20;;;;;;99224.39;;;;106483;1297;63408;-40
2022/01/20 12:59:37;;;;;;;4.50;1.20;;;;;;99231.60;;;;106603;1296;68088;-41
2022/01/20 13:02:23;;;;;;;5.40;1.20;;;;;;99235.70;;;;106472;1297;63426;-43
2022/01/20 13:05:19;;;;;;;3.00;0.90;;;;;;99230.92;;;;106618;1297;63368;-41
2022/01/20 13:07:51;;;;;;;3.40;1.20;;;;;;99231.77;;;;106539;1297;63378;-40
2022/01/20 13:10:29;;;;;;;3.30;1.00;;;;;;99231.85;;;;106618;1296;63364;-40
2022/01/20 13:12:57;;;;;;;4.70;1.10;;;;;;99233.86;;;;106708;1295;67966;-41
2022/01/20 13:15:25;;;;;;;3.00;0.80;;;;;;99242.84;;;;106585;1297;63536;-41
2022/01/20 13:18:04;;;;;;;3.20;1.20;;;;;;99246.08;;;;106559;1296;63440;-41
2022/01/20 13:20:31;;;;;;;3.00;1.20;;;;;;99253.58;;;;106558;1296;63328;-41
2022/01/20 13:23:54;;;;;;;4.50;1.10;;;;;;99256.69;;;;106571;1296;63337;-41
2022/01/20 13:26:07;;;;;;;4.30;1.30;;;;;;99259.04;;;;106555;1296;66829;-41
2022/01/20 13:28:35;;;;;;;3.40;1.00;;;;;;99273.05;;;;106534;1296;63502;-35
2022/01/20 13:31:15;;;;;;;4.30;1.20;;;;;;99266.66;;;;106452;1296;63430;-33
2022/01/20 13:33:43;;;;;;;4.70;1.10;;;;;;99267.94;;;;106532;1297;63357;-42
2022/01/20 13:36:10;;;;;;;3.40;0.90;;;;;;99259.38;;;;106621;1296;63351;-38
2022/01/20 13:38:47;;;;;;;3.90;1.10;;;;;;99260.77;;;;106596;1297;67153;-38
2022/01/20 13:41:22;;;;;;;3.00;0.80;;;;;;99263.96;;;;106599;1296;63387;-43
2022/01/20 13:46:59;;;;;;;3.40;1.20;;;;;;99255.52;;;;106662;1297;63957;-38
2022/01/20 13:49:27;;;;;;;3.80;1.20;;;;;;99262.94;;;;106498;1296;63512;-39
2022/01/20 13:52:14;;;;;;;3.30;1.10;;;;;;99258.45;;;;106596;1296;66753;-35
2022/01/20 13:54:48;;;;;;;4.30;1.30;;;;;;99259.98;;;;106599;1296;63466;-43
2022/01/20 13:57:16;;;;;;;3.10;0.90;;;;;;99252.27;;;;106672;1297;63401;-42
2022/01/20 13:59:55;;;;;;;4.10;1.30;;;;;;99249.41;;;;106668;1296;63559;-39
2022/01/20 14:02:25;;;;;;;3.90;1.30;;;;;;99251.52;;;;106608;1296;63392;-39
2022/01/20 14:04:53;;;;;;;4.80;1.30;;;;;;99254.27;;;;106616;1296;65265;-42
2022/01/20 14:07:22;;;;;;;4.40;1.40;;;;;;99257.17;;;;106577;1296;63464;-39
2022/01/20 14:09:49;;;;;;;3.40;1.30;;;;;;99259.98;;;;106572;1297;63577;-41
2022/01/20 14:12:16;;;;;;;3.50;1.30;;;;;;99266.00;;;;106621;1296;63474;-40
2022/01/20 14:14:44;;;;;;;4.70;1.00;;;;;;99299.87;;;;106624;1297;63367;-41
2022/01/20 14:17:24;;;;;;;3.90;1.10;;;;;;99301.19;;;;106680;1296;65539;-39
2022/01/20 14:19:57;;;;;;;5.00;1.30;;;;;;99317.63;;;;106557;1296;63523;-42
2022/01/20 14:22:25;;;;;;;3.20;1.10;;;;;;99317.73;;;;106617;1296;63436;-33
2022/01/20 14:24:52;;;;;;;3.50;1.20;;;;;;99303.52;;;;106606;1297;63751;-33
2022/01/20 14:27:19;;;;;;;4.40;1.10;;;;;;99301.43;;;;106561;1296;63387;-40